sensor_id;sensor_type;location;lat;lon;timestamp;pressure;altitude;pressure_sealevel;temperature;humidity
54980;BME280;44101;50.462;30.432;2022-07-10T00:02:25;98102.25;;;16.35;74.44
54980;BME280;44101;50.462;30.432;2022-07-10T00:04:50;98094.34;;;16.34;74.60
54980;BME280;44101;50.462;30.432;2022-07-10T00:07:16;98099.19;;;16.32;74.17
54980;BME280;44101;50.462;30.432;2022-07-10T00:09:42;98087.72;;;16.30;74.57
54980;BME280;44101;50.462;30.432;2022-07-10T00:12:08;98069.41;;;16.25;74.41
54980;BME280;44101;50.462;30.432;2022-07-10T00:14:33;98063.63;;;16.21;74.11
54980;BME280;44101;50.462;30.432;2022-07-10T00:16:59;98050.50;;;16.18;74.75
54980;BME280;44101;50.462;30.432;2022-07-10T00:19:24;98048.84;;;16.17;74.57
54980;BME280;44101;50.462;30.432;2022-07-10T00:21:50;98042.84;;;16.15;74.36
54980;BME280;44101;50.462;30.432;2022-07-10T00:24:16;98043.06;;;16.13;74.53
54980;BME280;44101;50.462;30.432;2022-07-10T00:26:41;98035.38;;;16.10;74.88
54980;BME280;44101;50.462;30.432;2022-07-10T00:29:07;98033.16;;;16.07;74.55
54980;BME280;44101;50.462;30.432;2022-07-10T00:31:34;98027.97;;;16.06;74.45
54980;BME280;44101;50.462;30.432;2022-07-10T00:33:59;98024.66;;;16.04;75.28
54980;BME280;44101;50.462;30.432;2022-07-10T00:36:25;98016.19;;;16.00;75.14
54980;BME280;44101;50.462;30.432;2022-07-10T00:38:51;98013.69;;;15.98;74.59
54980;BME280;44101;50.462;30.432;2022-07-10T00:41:17;98006.84;;;15.96;74.75
54980;BME280;44101;50.462;30.432;2022-07-10T00:43:53;98001.63;;;15.94;75.07
54980;BME280;44101;50.462;30.432;2022-07-10T00:46:19;98001.91;;;15.93;75.64
54980;BME280;44101;50.462;30.432;2022-07-10T00:48:48;97988.75;;;15.90;75.34
54980;BME280;44101;50.462;30.432;2022-07-10T00:51:16;97991.13;;;15.86;75.25
54980;BME280;44101;50.462;30.432;2022-07-10T00:53:44;97990.28;;;15.85;74.92
54980;BME280;44101;50.462;30.432;2022-07-10T00:56:10;97979.69;;;15.84;75.60
54980;BME280;44101;50.462;30.432;2022-07-10T00:58:37;97975.28;;;15.83;75.40
54980;BME280;44101;50.462;30.432;2022-07-10T01:01:05;97985.34;;;15.82;75.45
54980;BME280;44101;50.462;30.432;2022-07-10T01:03:31;97982.88;;;15.81;75.11
54980;BME280;44101;50.462;30.432;2022-07-10T01:05:57;97974.38;;;15.77;75.46
54980;BME280;44101;50.462;30.432;2022-07-10T01:08:24;97973.81;;;15.75;75.42
54980;BME280;44101;50.462;30.432;2022-07-10T01:10:50;97966.97;;;15.72;75.76
54980;BME280;44101;50.462;30.432;2022-07-10T01:13:16;97958.19;;;15.70;75.60
54980;BME280;44101;50.462;30.432;2022-07-10T01:15:44;97955.97;;;15.67;76.01
54980;BME280;44101;50.462;30.432;2022-07-10T01:18:10;97949.13;;;15.65;75.78
54980;BME280;44101;50.462;30.432;2022-07-10T01:20:36;97929.78;;;15.61;75.64
54980;BME280;44101;50.462;30.432;2022-07-10T01:23:02;97922.94;;;15.58;76.18
54980;BME280;44101;50.462;30.432;2022-07-10T01:25:28;97915.50;;;15.54;75.49
54980;BME280;44101;50.462;30.432;2022-07-10T01:27:53;97910.53;;;15.51;75.64
54980;BME280;44101;50.462;30.432;2022-07-10T01:30:20;97895.78;;;15.46;75.76
54980;BME280;44101;50.462;30.432;2022-07-10T01:32:47;97884.56;;;15.43;76.50
54980;BME280;44101;50.462;30.432;2022-07-10T01:35:13;97870.66;;;15.39;75.90
54980;BME280;44101;50.462;30.432;2022-07-10T01:37:39;97866.53;;;15.37;76.18
54980;BME280;44101;50.462;30.432;2022-07-10T01:40:06;97861.59;;;15.33;76.23
54980;BME280;44101;50.462;30.432;2022-07-10T01:42:32;97854.75;;;15.31;76.16
54980;BME280;44101;50.462;30.432;2022-07-10T01:44:58;97848.16;;;15.27;76.27
54980;BME280;44101;50.462;30.432;2022-07-10T01:47:24;97842.94;;;15.25;76.80
54980;BME280;44101;50.462;30.432;2022-07-10T01:49:52;97826.56;;;15.20;76.46
54980;BME280;44101;50.462;30.432;2022-07-10T01:52:20;97819.97;;;15.16;76.77
54980;BME280;44101;50.462;30.432;2022-07-10T01:54:47;97802.50;;;15.12;76.78
54980;BME280;44101;50.462;30.432;2022-07-10T01:57:13;97798.59;;;15.07;76.65
54980;BME280;44101;50.462;30.432;2022-07-10T01:59:39;97790.13;;;15.04;76.77
54980;BME280;44101;50.462;30.432;2022-07-10T02:02:05;97779.75;;;15.01;77.25
54980;BME280;44101;50.462;30.432;2022-07-10T02:04:31;97781.91;;;14.99;76.58
54980;BME280;44101;50.462;30.432;2022-07-10T02:07:19;97771.53;;;14.96;76.68
54980;BME280;44101;50.462;30.432;2022-07-10T02:09:46;97767.63;;;14.91;76.57
54980;BME280;44101;50.462;30.432;2022-07-10T02:12:14;97753.72;;;14.88;76.70
54980;BME280;44101;50.462;30.432;2022-07-10T02:14:40;97759.66;;;14.85;77.71
54980;BME280;44101;50.462;30.432;2022-07-10T02:17:07;97738.41;;;14.82;77.65
54980;BME280;44101;50.462;30.432;2022-07-10T02:19:34;97744.31;;;14.78;77.56
54980;BME280;44101;50.462;30.432;2022-07-10T02:22:00;97745.38;;;14.77;77.41
54980;BME280;44101;50.462;30.432;2022-07-10T02:24:26;97737.72;;;14.74;77.76
54980;BME280;44101;50.462;30.432;2022-07-10T02:26:52;97743.16;;;14.74;77.52
54980;BME280;44101;50.462;30.432;2022-07-10T02:29:18;97732.72;;;14.71;77.42
54980;BME280;44101;50.462;30.432;2022-07-10T02:31:43;97740.06;;;14.71;77.77
54980;BME280;44101;50.462;30.432;2022-07-10T02:34:12;97749.00;;;14.71;77.44
54980;BME280;44101;50.462;30.432;2022-07-10T02:36:41;97760.72;;;14.72;77.92
54980;BME280;44101;50.462;30.432;2022-07-10T02:39:07;97783.63;;;14.76;78.44
54980;BME280;44101;50.462;30.432;2022-07-10T02:41:34;97805.91;;;14.78;78.39
54980;BME280;44101;50.462;30.432;2022-07-10T02:44:02;97835.66;;;14.85;78.00
54980;BME280;44101;50.462;30.432;2022-07-10T02:46:28;97849.78;;;14.87;78.86
54980;BME280;44101;50.462;30.432;2022-07-10T02:48:53;97861.84;;;14.91;78.48
54980;BME280;44101;50.462;30.432;2022-07-10T02:51:19;97890.97;;;14.96;78.57
54980;BME280;44101;50.462;30.432;2022-07-10T02:53:45;97903.47;;;14.97;78.41
54980;BME280;44101;50.462;30.432;2022-07-10T02:56:10;97904.31;;;14.97;78.61
54980;BME280;44101;50.462;30.432;2022-07-10T02:58:38;97912.22;;;14.99;78.60
54980;BME280;44101;50.462;30.432;2022-07-10T03:01:04;97926.38;;;15.01;79.01
54980;BME280;44101;50.462;30.432;2022-07-10T03:03:29;97945.72;;;15.04;78.63
54980;BME280;44101;50.462;30.432;2022-07-10T03:05:55;97965.59;;;15.05;79.28
54980;BME280;44101;50.462;30.432;2022-07-10T03:08:21;97983.03;;;15.09;78.62
54980;BME280;44101;50.462;30.432;2022-07-10T03:10:46;97996.16;;;15.12;78.92
54980;BME280;44101;50.462;30.432;2022-07-10T03:13:12;98011.94;;;15.15;79.29
54980;BME280;44101;50.462;30.432;2022-07-10T03:15:38;98041.72;;;15.22;78.53
54980;BME280;44101;50.462;30.432;2022-07-10T03:18:03;98059.19;;;15.26;78.42
54980;BME280;44101;50.462;30.432;2022-07-10T03:20:29;98072.28;;;15.29;79.34
54980;BME280;44101;50.462;30.432;2022-07-10T03:22:55;98086.22;;;15.33;79.49
54980;BME280;44101;50.462;30.432;2022-07-10T03:25:20;98133.72;;;15.42;79.34
54980;BME280;44101;50.462;30.432;2022-07-10T03:27:46;98177.69;;;15.51;78.99
54980;BME280;44101;50.462;30.432;2022-07-10T03:30:11;98208.28;;;15.58;78.77
54980;BME280;44101;50.462;30.432;2022-07-10T03:32:37;98244.09;;;15.67;79.38
54980;BME280;44101;50.462;30.432;2022-07-10T03:35:03;98281.56;;;15.77;78.75
54980;BME280;44101;50.462;30.432;2022-07-10T03:37:29;98313.25;;;15.83;79.38
54980;BME280;44101;50.462;30.432;2022-07-10T03:39:54;98342.81;;;15.92;79.33
54980;BME280;44101;50.462;30.432;2022-07-10T03:42:20;98392.91;;;16.03;79.19
54980;BME280;44101;50.462;30.432;2022-07-10T03:44:46;98616.00;;;16.57;78.89
54980;BME280;44101;50.462;30.432;2022-07-10T03:47:12;98777.19;;;16.97;78.63
54980;BME280;44101;50.462;30.432;2022-07-10T03:49:38;98784.88;;;17.00;79.02
54980;BME280;44101;50.462;30.432;2022-07-10T03:52:07;98726.81;;;16.87;78.29
54980;BME280;44101;50.462;30.432;2022-07-10T03:54:34;98671.25;;;16.76;78.14
54980;BME280;44101;50.462;30.432;2022-07-10T03:56:59;98616.50;;;16.66;78.24
54980;BME280;44101;50.462;30.432;2022-07-10T03:59:44;98592.94;;;16.60;78.51
54980;BME280;44101;50.462;30.432;2022-07-10T04:02:10;98585.84;;;16.59;77.93
54980;BME280;44101;50.462;30.432;2022-07-10T04:04:36;98537.41;;;16.49;77.58
54980;BME280;44101;50.462;30.432;2022-07-10T04:07:02;98526.75;;;16.47;77.74
54980;BME280;44101;50.462;30.432;2022-07-10T04:09:29;98511.72;;;16.45;78.34
54980;BME280;44101;50.462;30.432;2022-07-10T04:11:55;98521.31;;;16.47;78.16
54980;BME280;44101;50.462;30.432;2022-07-10T04:14:21;98523.59;;;16.50;77.52
54980;BME280;44101;50.462;30.432;2022-07-10T04:16:47;98501.06;;;16.43;77.87
54980;BME280;44101;50.462;30.432;2022-07-10T04:19:12;98477.06;;;16.40;77.51
54980;BME280;44101;50.462;30.432;2022-07-10T04:21:38;98470.78;;;16.39;78.01
54980;BME280;44101;50.462;30.432;2022-07-10T04:24:04;98480.34;;;16.42;77.10
54980;BME280;44101;50.462;30.432;2022-07-10T04:26:30;98480.34;;;16.42;77.40
54980;BME280;44101;50.462;30.432;2022-07-10T04:28:55;98490.78;;;16.45;77.83
54980;BME280;44101;50.462;30.432;2022-07-10T04:31:21;98516.84;;;16.53;77.10
54980;BME280;44101;50.462;30.432;2022-07-10T04:33:47;98562.53;;;16.63;77.17
54980;BME280;44101;50.462;30.432;2022-07-10T04:36:13;98598.19;;;16.73;77.16
54980;BME280;44101;50.462;30.432;2022-07-10T04:38:39;98634.06;;;16.82;77.32
54980;BME280;44101;50.462;30.432;2022-07-10T04:41:04;98666.44;;;16.90;76.79
54980;BME280;44101;50.462;30.432;2022-07-10T04:43:30;98679.94;;;16.97;76.96
54980;BME280;44101;50.462;30.432;2022-07-10T04:45:56;98723.00;;;17.07;77.30
54980;BME280;44101;50.462;30.432;2022-07-10T04:48:22;98739.25;;;17.14;77.18
54980;BME280;44101;50.462;30.432;2022-07-10T04:50:48;98777.66;;;17.24;76.51
54980;BME280;44101;50.462;30.432;2022-07-10T04:53:13;98804.59;;;17.32;77.02
54980;BME280;44101;50.462;30.432;2022-07-10T04:55:39;98863.31;;;17.47;76.43
54980;BME280;44101;50.462;30.432;2022-07-10T04:58:05;98884.19;;;17.53;76.27
54980;BME280;44101;50.462;30.432;2022-07-10T05:00:31;98919.88;;;17.64;76.40
54980;BME280;44101;50.462;30.432;2022-07-10T05:02:56;98952.69;;;17.75;76.59
54980;BME280;44101;50.462;30.432;2022-07-10T05:05:22;98965.59;;;17.80;76.19
54980;BME280;44101;50.462;30.432;2022-07-10T05:07:48;98999.91;;;17.88;76.44
54980;BME280;44101;50.462;30.432;2022-07-10T05:10:14;99053.00;;;18.04;75.50
54980;BME280;44101;50.462;30.432;2022-07-10T05:12:39;99120.41;;;18.22;75.32
54980;BME280;44101;50.462;30.432;2022-07-10T05:15:06;99179.00;;;18.38;75.72
54980;BME280;44101;50.462;30.432;2022-07-10T05:17:32;99208.25;;;18.50;75.14
54980;BME280;44101;50.462;30.432;2022-07-10T05:19:57;99242.13;;;18.61;74.76
54980;BME280;44101;50.462;30.432;2022-07-10T05:22:24;99281.47;;;18.72;74.80
54980;BME280;44101;50.462;30.432;2022-07-10T05:24:50;99303.84;;;18.80;74.70
54980;BME280;44101;50.462;30.432;2022-07-10T05:27:15;99334.44;;;18.89;74.82
54980;BME280;44101;50.462;30.432;2022-07-10T05:29:44;99327.44;;;18.93;74.32
54980;BME280;44101;50.462;30.432;2022-07-10T05:32:10;99333.28;;;18.97;74.11
54980;BME280;44101;50.462;30.432;2022-07-10T05:34:36;99368.66;;;19.11;73.70
54980;BME280;44101;50.462;30.432;2022-07-10T05:37:01;99422.13;;;19.25;74.17
54980;BME280;44101;50.462;30.432;2022-07-10T05:39:27;99447.00;;;19.35;73.59
54980;BME280;44101;50.462;30.432;2022-07-10T05:41:53;99470.47;;;19.43;73.50
54980;BME280;44101;50.462;30.432;2022-07-10T05:44:20;99434.31;;;19.41;73.78
54980;BME280;44101;50.462;30.432;2022-07-10T05:46:46;99417.28;;;19.39;73.08
54980;BME280;44101;50.462;30.432;2022-07-10T05:49:12;99493.38;;;19.61;72.66
54980;BME280;44101;50.462;30.432;2022-07-10T05:51:38;99574.97;;;19.83;72.59
54980;BME280;44101;50.462;30.432;2022-07-10T05:54:04;99641.28;;;20.03;72.81
54980;BME280;44101;50.462;30.432;2022-07-10T05:56:30;99716.63;;;20.25;71.99
54980;BME280;44101;50.462;30.432;2022-07-10T05:58:56;99726.66;;;20.31;71.64
54980;BME280;44101;50.462;30.432;2022-07-10T06:01:24;99784.38;;;20.48;71.57
54980;BME280;44101;50.462;30.432;2022-07-10T06:03:49;99796.94;;;20.56;71.18
54980;BME280;44101;50.462;30.432;2022-07-10T06:06:15;99792.66;;;20.60;71.15
54980;BME280;44101;50.462;30.432;2022-07-10T06:08:42;99736.88;;;20.54;70.75
54980;BME280;44101;50.462;30.432;2022-07-10T06:11:08;99742.50;;;20.60;71.13
54980;BME280;44101;50.462;30.432;2022-07-10T06:16:39;99759.38;;;20.75;70.25
54980;BME280;44101;50.462;30.432;2022-07-10T06:19:05;99806.41;;;20.91;69.94
54980;BME280;44101;50.462;30.432;2022-07-10T06:21:31;99828.03;;;20.99;70.12
54980;BME280;44101;50.462;30.432;2022-07-10T06:23:56;99809.44;;;21.01;69.41
54980;BME280;44101;50.462;30.432;2022-07-10T06:26:22;99770.09;;;20.95;69.79
54980;BME280;44101;50.462;30.432;2022-07-10T06:28:48;99756.16;;;20.97;69.19
54980;BME280;44101;50.462;30.432;2022-07-10T06:31:14;99780.00;;;21.08;69.48
54980;BME280;44101;50.462;30.432;2022-07-10T06:33:39;99810.44;;;21.19;68.77
54980;BME280;44101;50.462;30.432;2022-07-10T06:36:05;99807.84;;;21.24;68.76
54980;BME280;44101;50.462;30.432;2022-07-10T06:38:31;99768.50;;;21.18;68.46
54980;BME280;44101;50.462;30.432;2022-07-10T06:40:57;99792.59;;;21.28;68.49
54980;BME280;44101;50.462;30.432;2022-07-10T06:43:23;99841.28;;;21.45;68.17
54980;BME280;44101;50.462;30.432;2022-07-10T06:45:49;99899.69;;;21.64;67.91
54980;BME280;44101;50.462;30.432;2022-07-10T06:48:15;100058.34;;;22.04;67.85
54980;BME280;44101;50.462;30.432;2022-07-10T06:50:41;100021.22;;;22.02;67.28
54980;BME280;44101;50.462;30.432;2022-07-10T06:53:07;99994.34;;;22.04;67.61
54980;BME280;44101;50.462;30.432;2022-07-10T06:55:33;100081.47;;;22.27;66.96
54980;BME280;44101;50.462;30.432;2022-07-10T06:57:59;100170.34;;;22.52;67.23
54980;BME280;44101;50.462;30.432;2022-07-10T07:00:25;100173.00;;;22.59;66.67
54980;BME280;44101;50.462;30.432;2022-07-10T07:02:50;100161.28;;;22.63;66.47
54980;BME280;44101;50.462;30.432;2022-07-10T07:05:16;100141.19;;;22.63;66.54
54980;BME280;44101;50.462;30.432;2022-07-10T07:07:42;100101.91;;;22.62;65.91
54980;BME280;44101;50.462;30.432;2022-07-10T07:10:09;100017.94;;;22.48;65.85
54980;BME280;44101;50.462;30.432;2022-07-10T07:12:35;99885.22;;;22.23;65.87
54980;BME280;44101;50.462;30.432;2022-07-10T07:15:03;99815.72;;;22.11;65.63
54980;BME280;44101;50.462;30.432;2022-07-10T07:17:29;99746.81;;;22.00;65.28
54980;BME280;44101;50.462;30.432;2022-07-10T07:20:11;99717.13;;;21.97;65.61
54980;BME280;44101;50.462;30.432;2022-07-10T07:22:55;99681.91;;;21.94;64.84
54980;BME280;44101;50.462;30.432;2022-07-10T07:25:40;99630.69;;;21.88;65.00
54980;BME280;44101;50.462;30.432;2022-07-10T07:28:09;99558.53;;;21.75;64.85
54980;BME280;44101;50.462;30.432;2022-07-10T07:30:41;99444.41;;;21.50;64.82
54980;BME280;44101;50.462;30.432;2022-07-10T07:33:07;99421.03;;;21.48;64.88
54980;BME280;44101;50.462;30.432;2022-07-10T07:35:33;99424.97;;;21.52;64.24
54980;BME280;44101;50.462;30.432;2022-07-10T07:38:01;99417.56;;;21.53;64.26
54980;BME280;44101;50.462;30.432;2022-07-10T07:40:26;99394.78;;;21.52;64.40
54980;BME280;44101;50.462;30.432;2022-07-10T07:42:53;99384.88;;;21.51;64.02
54980;BME280;44101;50.462;30.432;2022-07-10T07:45:20;99415.47;;;21.60;64.25
54980;BME280;44101;50.462;30.432;2022-07-10T07:47:48;99447.09;;;21.74;64.13
54980;BME280;44101;50.462;30.432;2022-07-10T07:50:15;99462.56;;;21.81;64.13
54980;BME280;44101;50.462;30.432;2022-07-10T07:52:41;99514.19;;;21.96;63.83
54980;BME280;44101;50.462;30.432;2022-07-10T07:55:07;99569.97;;;22.13;64.13
54980;BME280;44101;50.462;30.432;2022-07-10T07:57:33;99622.44;;;22.29;63.61
54980;BME280;44101;50.462;30.432;2022-07-10T07:59:59;99739.06;;;22.62;63.47
54980;BME280;44101;50.462;30.432;2022-07-10T08:02:25;99923.34;;;23.08;63.91
54980;BME280;44101;50.462;30.432;2022-07-10T08:04:50;99987.31;;;23.28;63.57
54980;BME280;44101;50.462;30.432;2022-07-10T08:07:16;100022.59;;;23.43;63.12
54980;BME280;44101;50.462;30.432;2022-07-10T08:09:41;100052.81;;;23.55;62.79
54980;BME280;44101;50.462;30.432;2022-07-10T08:12:08;100030.78;;;23.55;63.44
54980;BME280;44101;50.462;30.432;2022-07-10T08:14:33;100019.31;;;23.58;62.76
54980;BME280;44101;50.462;30.432;2022-07-10T08:16:59;100088.28;;;23.80;62.51
54980;BME280;44101;50.462;30.432;2022-07-10T08:19:25;100195.50;;;24.11;62.17
54980;BME280;44101;50.462;30.432;2022-07-10T08:21:51;100317.78;;;24.45;61.99
54980;BME280;44101;50.462;30.432;2022-07-10T08:24:16;100411.53;;;24.75;61.84
54980;BME280;44101;50.462;30.432;2022-07-10T08:26:42;100450.53;;;24.90;61.53
54980;BME280;44101;50.462;30.432;2022-07-10T08:29:08;100449.78;;;24.95;61.17
54980;BME280;44101;50.462;30.432;2022-07-10T08:31:33;100379.03;;;24.89;61.18
54980;BME280;44101;50.462;30.432;2022-07-10T08:33:59;100271.88;;;24.68;60.73
54980;BME280;44101;50.462;30.432;2022-07-10T08:36:25;100183.13;;;24.54;60.73
54980;BME280;44101;50.462;30.432;2022-07-10T08:38:52;100184.63;;;24.62;60.42
54980;BME280;44101;50.462;30.432;2022-07-10T08:41:25;100260.69;;;24.87;59.90
54980;BME280;44101;50.462;30.432;2022-07-10T08:43:52;100200.13;;;24.80;59.91
54980;BME280;44101;50.462;30.432;2022-07-10T08:46:18;100203.81;;;24.86;59.60
54980;BME280;44101;50.462;30.432;2022-07-10T08:48:48;100180.94;;;24.85;59.58
54980;BME280;44101;50.462;30.432;2022-07-10T08:51:24;100120.13;;;24.80;59.22
54980;BME280;44101;50.462;30.432;2022-07-10T08:53:51;100050.19;;;24.69;58.76
54980;BME280;44101;50.462;30.432;2022-07-10T08:56:19;100006.00;;;24.64;58.90
54980;BME280;44101;50.462;30.432;2022-07-10T08:58:45;99953.78;;;24.57;58.72
54980;BME280;44101;50.462;30.432;2022-07-10T09:01:11;99882.78;;;24.48;58.72
54980;BME280;44101;50.462;30.432;2022-07-10T09:03:37;99841.38;;;24.42;58.12
54980;BME280;44101;50.462;30.432;2022-07-10T09:06:04;99809.63;;;24.40;58.26
54980;BME280;44101;50.462;30.432;2022-07-10T09:08:30;99808.88;;;24.44;57.99
54980;BME280;44101;50.462;30.432;2022-07-10T09:11:18;99693.97;;;24.23;57.78
54980;BME280;44101;50.462;30.432;2022-07-10T09:13:53;99644.56;;;24.16;57.79
54980;BME280;44101;50.462;30.432;2022-07-10T09:16:50;99626.94;;;24.17;57.87
54980;BME280;44101;50.462;30.432;2022-07-10T09:19:23;99675.06;;;24.31;57.54
54980;BME280;44101;50.462;30.432;2022-07-10T09:21:54;99755.81;;;24.54;57.57
54980;BME280;44101;50.462;30.432;2022-07-10T09:24:21;99753.09;;;24.60;57.37
54980;BME280;44101;50.462;30.432;2022-07-10T09:29:21;99794.13;;;24.78;57.17
54980;BME280;44101;50.462;30.432;2022-07-10T09:32:01;99780.06;;;24.80;57.09
54980;BME280;44101;50.462;30.432;2022-07-10T09:37:20;99926.81;;;25.27;56.57
54980;BME280;44101;50.462;30.432;2022-07-10T09:42:34;100256.28;;;26.16;56.13
54980;BME280;44101;50.462;30.432;2022-07-10T09:47:40;100111.25;;;25.97;55.80
54980;BME280;44101;50.462;30.432;2022-07-10T09:52:52;99807.16;;;25.38;55.28
54980;BME280;44101;50.462;30.432;2022-07-10T09:55:22;99915.38;;;25.68;54.90
54980;BME280;44101;50.462;30.432;2022-07-10T09:58:14;100013.44;;;25.98;54.86
54980;BME280;44101;50.462;30.432;2022-07-10T10:00:40;100152.03;;;26.34;54.58
54980;BME280;44101;50.462;30.432;2022-07-10T10:03:08;100197.00;;;26.52;54.39
54980;BME280;44101;50.462;30.432;2022-07-10T10:05:45;100028.88;;;26.21;54.23
54980;BME280;44101;50.462;30.432;2022-07-10T10:08:28;99880.81;;;25.92;54.52
54980;BME280;44101;50.462;30.432;2022-07-10T10:10:56;99818.00;;;25.83;54.07
54980;BME280;44101;50.462;30.432;2022-07-10T10:13:24;99617.25;;;25.40;54.12
54980;BME280;44101;50.462;30.432;2022-07-10T10:15:53;99402.06;;;24.92;53.48
54980;BME280;44101;50.462;30.432;2022-07-10T10:18:24;99162.25;;;24.38;53.95
54980;BME280;44101;50.462;30.432;2022-07-10T10:20:52;98825.28;;;23.60;53.29
54980;BME280;44101;50.462;30.432;2022-07-10T10:23:22;98661.53;;;23.21;53.70
54980;BME280;44101;50.462;30.432;2022-07-10T10:25:49;98714.91;;;23.35;53.90
54980;BME280;44101;50.462;30.432;2022-07-10T10:28:17;98804.09;;;23.60;53.63
54980;BME280;44101;50.462;30.432;2022-07-10T10:30:50;98959.09;;;23.97;53.24
54980;BME280;44101;50.462;30.432;2022-07-10T10:36:01;99068.84;;;24.31;52.91
54980;BME280;44101;50.462;30.432;2022-07-10T10:41:31;98877.59;;;23.91;53.03
54980;BME280;44101;50.462;30.432;2022-07-10T10:49:25;98864.66;;;23.91;53.00
54980;BME280;44101;50.462;30.432;2022-07-10T10:52:02;98902.94;;;24.03;52.02
54980;BME280;44101;50.462;30.432;2022-07-10T10:54:30;98915.63;;;24.10;52.02
54980;BME280;44101;50.462;30.432;2022-07-10T10:57:16;98934.66;;;24.16;51.87
54980;BME280;44101;50.462;30.432;2022-07-10T10:59:53;99002.97;;;24.35;52.29
54980;BME280;44101;50.462;30.432;2022-07-10T11:02:26;99077.38;;;24.56;51.58
54980;BME280;44101;50.462;30.432;2022-07-10T11:07:59;99209.00;;;24.92;51.25
54980;BME280;44101;50.462;30.432;2022-07-10T11:10:41;99307.81;;;25.21;51.70
54980;BME280;44101;50.462;30.432;2022-07-10T11:13:17;99369.13;;;25.38;51.27
54980;BME280;44101;50.462;30.432;2022-07-10T11:15:48;99316.09;;;25.31;51.32
54980;BME280;44101;50.462;30.432;2022-07-10T11:18:18;99336.81;;;25.39;51.06
54980;BME280;44101;50.462;30.432;2022-07-10T11:20:47;99360.00;;;25.48;50.84
54980;BME280;44101;50.462;30.432;2022-07-10T11:26:35;99524.16;;;25.99;50.49
54980;BME280;44101;50.462;30.432;2022-07-10T11:29:03;99578.09;;;26.17;50.10
54980;BME280;44101;50.462;30.432;2022-07-10T11:31:33;99629.28;;;26.36;50.24
54980;BME280;44101;50.462;30.432;2022-07-10T11:34:10;99571.19;;;26.25;50.06
54980;BME280;44101;50.462;30.432;2022-07-10T11:36:39;99530.53;;;26.21;49.56
54980;BME280;44101;50.462;30.432;2022-07-10T11:39:06;99510.38;;;26.20;49.43
54980;BME280;44101;50.462;30.432;2022-07-10T11:41:32;99523.94;;;26.27;49.18
54980;BME280;44101;50.462;30.432;2022-07-10T11:44:00;99502.41;;;26.29;49.17
54980;BME280;44101;50.462;30.432;2022-07-10T11:46:28;99562.09;;;26.45;48.94
54980;BME280;44101;50.462;30.432;2022-07-10T11:48:54;99611.31;;;26.64;48.81
54980;BME280;44101;50.462;30.432;2022-07-10T11:51:33;99667.50;;;26.80;48.92
54980;BME280;44101;50.462;30.432;2022-07-10T11:54:03;99708.50;;;26.99;48.30
54980;BME280;44101;50.462;30.432;2022-07-10T11:56:31;99724.81;;;27.06;48.14
54980;BME280;44101;50.462;30.432;2022-07-10T11:59:09;99710.44;;;27.09;48.05
54980;BME280;44101;50.462;30.432;2022-07-10T12:01:42;99673.06;;;27.06;47.78
54980;BME280;44101;50.462;30.432;2022-07-10T12:04:09;99598.09;;;26.92;47.98
54980;BME280;44101;50.462;30.432;2022-07-10T12:06:45;99550.50;;;26.85;47.47
54980;BME280;44101;50.462;30.432;2022-07-10T12:09:16;99534.44;;;26.87;47.62
54980;BME280;44101;50.462;30.432;2022-07-10T12:11:43;99629.88;;;27.16;47.15
54980;BME280;44101;50.462;30.432;2022-07-10T12:14:16;99679.69;;;27.31;47.04
54980;BME280;44101;50.462;30.432;2022-07-10T12:16:47;99706.81;;;27.45;47.23
54980;BME280;44101;50.462;30.432;2022-07-10T12:19:15;99622.09;;;27.28;46.63
54980;BME280;44101;50.462;30.432;2022-07-10T12:21:42;99510.63;;;27.07;46.41
54980;BME280;44101;50.462;30.432;2022-07-10T12:24:08;99543.53;;;27.19;46.61
54980;BME280;44101;50.462;30.432;2022-07-10T12:26:36;99483.22;;;27.10;45.95
54980;BME280;44101;50.462;30.432;2022-07-10T12:29:03;99450.03;;;27.05;46.30
54980;BME280;44101;50.462;30.432;2022-07-10T12:31:32;99582.78;;;27.42;45.88
54980;BME280;44101;50.462;30.432;2022-07-10T12:34:00;99952.53;;;28.38;46.16
54980;BME280;44101;50.462;30.432;2022-07-10T12:39:09;100480.91;;;29.78;45.70
54980;BME280;44101;50.462;30.432;2022-07-10T12:41:59;100222.78;;;29.25;45.15
54980;BME280;44101;50.462;30.432;2022-07-10T12:44:41;99925.03;;;28.62;45.14
54980;BME280;44101;50.462;30.432;2022-07-10T12:47:11;99972.72;;;28.80;44.69
54980;BME280;44101;50.462;30.432;2022-07-10T12:49:58;100418.66;;;29.95;44.53
54980;BME280;44101;50.462;30.432;2022-07-10T12:52:29;100858.94;;;31.06;44.48
54980;BME280;44101;50.462;30.432;2022-07-10T12:55:22;100907.19;;;31.27;43.80
54980;BME280;44101;50.462;30.432;2022-07-10T13:00:24;100254.03;;;29.93;43.64
54980;BME280;44101;50.462;30.432;2022-07-10T13:02:58;99747.94;;;28.80;43.63
54980;BME280;44101;50.462;30.432;2022-07-10T13:05:25;99377.22;;;27.95;43.84
54980;BME280;44101;50.462;30.432;2022-07-10T13:07:51;99149.72;;;27.43;43.38
54980;BME280;44101;50.462;30.432;2022-07-10T13:10:17;98967.78;;;26.99;43.60
54980;BME280;44101;50.462;30.432;2022-07-10T13:12:43;98846.41;;;26.68;43.57
54980;BME280;44101;50.462;30.432;2022-07-10T13:15:09;98776.88;;;26.56;43.49
54980;BME280;44101;50.462;30.432;2022-07-10T13:17:43;98729.19;;;26.45;43.30
54980;BME280;44101;50.462;30.432;2022-07-10T13:20:09;98715.94;;;26.42;43.48
54980;BME280;44101;50.462;30.432;2022-07-10T13:22:35;98748.16;;;26.52;43.34
54980;BME280;44101;50.462;30.432;2022-07-10T13:25:01;98707.38;;;26.43;43.82
54980;BME280;44101;50.462;30.432;2022-07-10T13:27:26;98647.56;;;26.28;43.38
54980;BME280;44101;50.462;30.432;2022-07-10T13:29:52;98588.31;;;26.15;43.69
54980;BME280;44101;50.462;30.432;2022-07-10T13:32:18;98550.28;;;26.07;43.57